Time;durP1;ratioP1;P1;durP2;ratioP2;P2;SDS_P1;SDS_P2;PMS_P1;PMS_P2;Temp;Humidity;BMP_temperature;BMP_pressure;BME280_temperature;BME280_humidity;BME280_pressure;Samples;Min_cycle;Max_cycle;Signal;HPM_P1;HPM_P2
2021/03/05 00:02:54;;;;;;;18.70;9.77;;;;;;;0.34;78.29;99308.09;510969;1100;114447;-64
2021/03/05 00:13:11;;;;;;;10.10;5.45;;;;;;;0.09;78.17;99334.56;510745;1099;114452;-64
2021/03/05 00:23:15;;;;;;;8.50;5.50;;;;;;;-0.34;78.72;99336.45;510832;1099;114241;-64
2021/03/05 00:33:19;;;;;;;5.37;4.20;;;;;;;-0.53;77.82;99345.49;510157;1099;113881;-63
2021/03/05 00:43:35;;;;;;;5.75;3.75;;;;;;;-0.72;78.09;99351.91;510288;1099;114347;-64
2021/03/05 00:53:39;;;;;;;7.27;4.10;;;;;;;-0.87;78.80;99350.49;510714;1101;113955;-64
2021/03/05 01:03:43;;;;;;;6.93;2.43;;;;;;;-1.00;78.17;99336.17;510939;1099;114956;-62
2021/03/05 01:13:51;;;;;;;4.20;2.20;;;;;;;-1.10;77.69;99348.41;510450;1099;115143;-64
2021/03/05 01:23:56;;;;;;;5.03;2.47;;;;;;;-1.25;78.38;99353.87;511047;1099;114932;-66
2021/03/05 01:34:00;;;;;;;6.13;3.27;;;;;;;-1.40;78.96;99345.53;510979;1099;114457;-64
2021/03/05 01:44:15;;;;;;;3.67;2.23;;;;;;;-1.41;79.38;99357.58;511052;1097;114897;-62
2021/03/05 01:54:22;;;;;;;5.63;3.87;;;;;;;-1.45;79.28;99353.34;511051;1099;113995;-63
2021/03/05 02:04:26;;;;;;;5.53;2.83;;;;;;;-1.47;78.40;99355.11;510927;1099;113950;-63
2021/03/05 02:14:39;;;;;;;2.93;1.93;;;;;;;-1.37;78.91;99360.09;511025;1099;114432;-63
2021/03/05 02:25:25;;;;;;;7.23;3.33;;;;;;;-1.28;78.69;99373.64;510778;1099;115319;-64
2021/03/05 02:35:33;;;;;;;7.08;3.40;;;;;;;-1.19;78.70;99385.52;510915;1098;114532;-66
2021/03/05 02:45:40;;;;;;;5.20;4.40;;;;;;;-1.08;78.82;99387.88;511045;1099;114438;-63
2021/03/05 02:55:46;;;;;;;12.80;5.40;;;;;;;-0.99;79.33;99395.43;511077;1099;114455;-63
2021/03/05 03:05:52;;;;;;;10.97;5.40;;;;;;;-0.92;78.78;99406.47;511121;1099;114116;-63
2021/03/05 03:15:58;;;;;;;8.87;5.53;;;;;;;-0.89;78.86;99421.86;511130;1099;115044;-63
2021/03/05 03:26:03;;;;;;;10.23;4.20;;;;;;;-0.93;78.49;99429.69;511012;1099;114238;-64
2021/03/05 03:36:08;;;;;;;9.53;4.90;;;;;;;-0.99;78.41;99438.39;511188;1099;115127;-64
2021/03/05 03:46:12;;;;;;;11.67;5.33;;;;;;;-1.08;78.44;99443.74;511331;1099;115015;-65
2021/03/05 03:56:18;;;;;;;6.90;4.80;;;;;;;-1.14;78.23;99457.59;510792;1099;114090;-63
2021/03/05 04:06:26;;;;;;;6.17;3.75;;;;;;;-1.19;77.85;99451.65;511035;1099;113987;-63
2021/03/05 04:16:30;;;;;;;4.07;2.93;;;;;;;-1.25;77.31;99456.92;511028;1099;114387;-64
2021/03/05 04:26:34;;;;;;;8.40;3.97;;;;;;;-1.31;78.03;99466.45;510951;1099;113969;-64
2021/03/05 04:36:38;;;;;;;5.57;4.00;;;;;;;-1.36;78.32;99473.42;511223;1099;115939;-64
2021/03/05 04:46:43;;;;;;;8.27;4.83;;;;;;;-1.38;78.17;99482.04;511145;1098;114484;-64
2021/03/05 04:56:50;;;;;;;8.90;5.37;;;;;;;-1.53;78.05;99478.85;511049;1098;116204;-64
2021/03/05 05:06:54;;;;;;;7.27;4.60;;;;;;;-1.64;77.87;99489.30;511104;1099;115451;-64
2021/03/05 05:16:58;;;;;;;7.33;3.97;;;;;;;-1.75;77.75;99510.08;511135;1099;114201;-63
2021/03/05 05:27:03;;;;;;;7.95;3.20;;;;;;;-1.86;78.05;99522.25;510816;1099;114432;-63
2021/03/05 05:37:07;;;;;;;6.97;4.10;;;;;;;-1.96;78.11;99534.41;510866;1099;114482;-64
2021/03/05 05:47:18;;;;;;;11.87;4.27;;;;;;;-1.99;78.33;99547.30;511050;1099;113925;-64
2021/03/05 05:57:23;;;;;;;7.80;5.67;;;;;;;-1.89;78.44;99568.63;511136;1099;115704;-63
2021/03/05 06:07:29;;;;;;;10.93;6.67;;;;;;;-1.85;78.38;99568.58;511005;1099;114230;-65
2021/03/05 06:17:44;;;;;;;10.67;7.30;;;;;;;-1.77;77.68;99585.62;510820;1099;114908;-64
2021/03/05 06:27:49;;;;;;;9.05;6.90;;;;;;;-1.72;77.70;99604.45;510794;1099;114455;-63
2021/03/05 06:37:54;;;;;;;10.13;7.10;;;;;;;-1.62;77.75;99633.48;510725;1099;114492;-63
2021/03/05 06:48:06;;;;;;;6.43;5.63;;;;;;;-1.60;77.05;99644.62;510805;1099;114115;-65
2021/03/05 06:58:10;;;;;;;11.17;6.50;;;;;;;-1.79;77.19;99655.17;511093;1099;115697;-64
2021/03/05 07:08:14;;;;;;;9.93;8.10;;;;;;;-1.52;77.04;99665.11;510740;1098;114530;-63
2021/03/05 07:18:25;;;;;;;6.97;5.63;;;;;;;-0.69;75.18;99678.52;510812;1098;114613;-63
2021/03/05 07:28:31;;;;;;;6.77;5.57;;;;;;;-0.50;74.97;99686.79;510977;1099;113957;-62
2021/03/05 07:38:39;;;;;;;6.45;4.85;;;;;;;-0.09;74.13;99694.67;511096;1099;113934;-63
2021/03/05 07:48:49;;;;;;;7.23;6.23;;;;;;;0.24;73.01;99717.32;510934;1099;114922;-62
2021/03/05 07:58:54;;;;;;;8.83;6.17;;;;;;;0.12;73.68;99714.09;510843;1099;114608;-61
2021/03/05 08:09:08;;;;;;;6.17;5.47;;;;;;;4.39;69.30;99715.39;510835;1099;113742;-62
2021/03/05 08:19:45;;;;;;;9.05;5.05;;;;;;;2.56;68.46;99727.31;510857;1099;113962;-63
2021/03/05 08:30:03;;;;;;;8.45;4.50;;;;;;;2.57;69.04;99729.88;493180;1099;10002093;-62
2021/03/05 08:40:32;;;;;;;4.83;3.40;;;;;;;7.99;64.48;99735.50;510540;1099;114143;-58
2021/03/05 08:50:40;;;;;;;5.00;3.80;;;;;;;12.21;60.73;99732.57;510689;1099;113882;-61
2021/03/05 09:00:44;;;;;;;4.83;2.53;;;;;;;11.65;50.79;99741.52;510572;1099;115836;-62
2021/03/05 09:10:55;;;;;;;5.00;2.40;;;;;;;9.73;54.47;99754.98;511031;1099;114210;-62
2021/03/05 09:21:01;;;;;;;4.23;1.60;;;;;;;9.58;50.43;99767.22;510923;1099;10001837;-61
2021/03/05 09:31:05;;;;;;;7.43;1.70;;;;;;;6.23;52.91;99772.37;510715;1099;115732;-60
2021/03/05 09:41:15;;;;;;;2.33;1.50;;;;;;;5.43;51.55;99774.77;525457;1098;114415;-60
2021/03/05 09:51:20;;;;;;;2.20;1.23;;;;;;;3.59;52.95;99793.41;514161;1099;114293;-59
2021/03/05 10:01:25;;;;;;;2.53;1.30;;;;;;;3.33;54.44;99802.86;510516;1099;114713;-59
2021/03/05 10:11:36;;;;;;;8.67;2.10;;;;;;;3.13;52.88;99808.66;510516;1099;113773;-59
2021/03/05 10:21:44;;;;;;;2.77;1.70;;;;;;;3.11;53.13;99827.77;510811;1099;114238;-59
2021/03/05 10:31:51;;;;;;;2.03;1.67;;;;;;;2.72;52.01;99842.69;510898;1099;114228;-59
2021/03/05 10:41:58;;;;;;;2.47;1.00;;;;;;;3.04;51.29;99850.45;510611;1099;113652;-59
2021/03/05 10:52:07;;;;;;;2.20;1.55;;;;;;;2.64;49.04;99853.23;510639;1099;113720;-60
2021/03/05 11:02:11;;;;;;;3.00;1.30;;;;;;;2.62;51.31;99869.75;510621;1099;113745;-59
2021/03/05 11:12:15;;;;;;;1.73;1.43;;;;;;;2.80;48.80;99882.20;510711;1098;113756;-59
2021/03/05 11:22:23;;;;;;;3.50;0.80;;;;;;;3.08;48.35;99876.27;510711;1099;115002;-59
2021/03/05 11:32:27;;;;;;;1.37;0.82;;;;;;;2.88;48.88;99869.02;510577;1099;114930;-60
2021/03/05 11:42:31;;;;;;;3.45;1.10;;;;;;;2.87;49.62;99879.45;510623;1099;113774;-59
2021/03/05 11:52:39;;;;;;;2.85;1.35;;;;;;;2.86;48.47;99885.53;510874;1099;114123;-66
2021/03/05 12:02:46;;;;;;;1.17;0.40;;;;;;;2.95;47.88;99867.12;511238;1099;113756;-65
2021/03/05 12:12:50;;;;;;;2.77;1.82;;;;;;;2.83;49.27;99888.19;511365;1099;114161;-60
2021/03/05 12:22:55;;;;;;;2.57;1.37;;;;;;;2.65;49.17;99899.05;511435;1099;115132;-60
2021/03/05 12:32:59;;;;;;;6.07;1.90;;;;;;;2.46;50.95;99919.38;511862;1099;113843;-63
2021/03/05 12:43:07;;;;;;;7.17;1.67;;;;;;;2.89;50.84;99914.84;511857;1099;114467;-67
2021/03/05 12:53:11;;;;;;;3.87;1.80;;;;;;;2.87;50.25;99926.14;511195;1099;113756;-60
2021/03/05 13:03:15;;;;;;;4.10;2.30;;;;;;;2.72;49.79;99929.98;511361;1098;114284;-59
2021/03/05 13:13:20;;;;;;;3.07;1.50;;;;;;;2.37;48.81;99948.15;511273;1099;114802;-63
2021/03/05 13:23:34;;;;;;;3.37;1.77;;;;;;;2.23;49.98;99953.66;511348;1098;113987;-65
2021/03/05 13:33:39;;;;;;;3.53;2.00;;;;;;;2.47;51.22;99957.38;511593;1099;113793;-67
2021/03/05 13:43:47;;;;;;;3.63;2.00;;;;;;;2.58;51.82;99958.85;503170;1099;10001313;-62
2021/03/05 13:53:53;;;;;;;6.13;2.33;;;;;;;2.57;51.82;99986.54;510561;1099;114952;-61
2021/03/05 14:03:57;;;;;;;4.63;2.23;;;;;;;2.36;50.97;99982.70;510968;1099;114514;-61
2021/03/05 14:14:01;;;;;;;4.70;2.60;;;;;;;2.12;52.01;100000.53;511056;1099;114888;-61
2021/03/05 14:24:07;;;;;;;3.17;1.70;;;;;;;2.11;52.00;100011.78;510748;1099;115287;-62
2021/03/05 14:34:14;;;;;;;5.27;2.27;;;;;;;1.82;51.83;100008.10;510608;1099;113955;-62
2021/03/05 14:44:21;;;;;;;7.40;3.30;;;;;;;1.59;51.02;100018.91;510682;1098;114380;-62
2021/03/05 14:54:27;;;;;;;2.77;1.87;;;;;;;1.74;51.41;100015.17;510535;1098;114310;-62
2021/03/05 15:04:31;;;;;;;4.90;2.50;;;;;;;2.00;51.94;100026.70;510214;1099;115810;-59
2021/03/05 15:14:35;;;;;;;4.33;2.30;;;;;;;2.00;51.58;100045.70;510416;1099;115214;-51
2021/03/05 15:24:39;;;;;;;4.53;2.17;;;;;;;1.99;52.58;100051.77;510805;1099;113985;-56
2021/03/05 15:34:43;;;;;;;7.87;2.43;;;;;;;1.96;53.80;100063.04;511249;1099;115963;-59
2021/03/05 15:44:48;;;;;;;5.30;3.03;;;;;;;1.47;52.36;100067.45;511236;1099;115345;-50
2021/03/05 15:55:00;;;;;;;3.83;1.97;;;;;;;0.96;51.28;100089.91;511096;1099;114611;-53
2021/03/05 16:05:06;;;;;;;3.47;1.67;;;;;;;0.59;48.05;100115.46;511487;1099;115573;-61
2021/03/05 16:15:12;;;;;;;3.00;1.23;;;;;;;0.23;48.03;100126.27;511386;1099;114456;-62
2021/03/05 16:25:23;;;;;;;3.17;2.20;;;;;;;-0.09;48.17;100153.36;511823;1099;113869;-69
2021/03/05 16:35:28;;;;;;;5.37;3.67;;;;;;;-0.35;48.91;100165.66;511154;1099;115185;-50
2021/03/05 16:45:33;;;;;;;5.93;3.33;;;;;;;-0.52;50.43;100186.45;511486;1099;114541;-55
2021/03/05 16:55:45;;;;;;;5.57;3.27;;;;;;;-0.61;51.86;100210.61;511198;1099;114106;-59
2021/03/05 17:05:51;;;;;;;6.80;3.77;;;;;;;-0.82;53.73;100223.66;510871;1099;114567;-55
2021/03/05 17:15:55;;;;;;;6.63;3.13;;;;;;;-0.97;54.93;100250.39;511162;1099;114373;-57
2021/03/05 17:26:07;;;;;;;5.60;2.90;;;;;;;-1.17;57.23;100272.84;510888;1099;115435;-51
2021/03/05 17:36:12;;;;;;;5.17;3.00;;;;;;;-1.47;58.60;100274.67;521512;1098;121338;-55
2021/03/05 17:46:18;;;;;;;5.43;3.53;;;;;;;-1.70;59.88;100282.48;510962;1099;114072;-56
2021/03/05 17:56:30;;;;;;;7.50;3.73;;;;;;;-1.90;61.53;100296.24;510856;1099;114807;-57
2021/03/05 18:06:35;;;;;;;6.10;3.77;;;;;;;-1.96;62.62;100311.71;511364;1099;114417;-56
2021/03/05 18:16:39;;;;;;;11.27;3.57;;;;;;;-1.97;63.26;100309.97;510893;1099;114242;-54
2021/03/05 18:26:51;;;;;;;5.77;4.00;;;;;;;-2.18;63.98;100324.58;502249;1099;10001945;-61
2021/03/05 18:36:55;;;;;;;10.33;6.10;;;;;;;-2.35;65.11;100334.86;510794;1099;114655;-64
2021/03/05 18:47:03;;;;;;;8.17;4.00;;;;;;;-2.56;65.89;100344.26;510205;1099;115367;-61
2021/03/05 18:57:13;;;;;;;6.45;3.55;;;;;;;-2.53;66.06;100348.56;510399;1099;114143;-59
2021/03/05 19:07:18;;;;;;;8.90;4.53;;;;;;;-2.29;66.98;100352.02;510670;1099;115088;-61
2021/03/05 19:17:23;;;;;;;10.43;4.90;;;;;;;-2.04;66.70;100363.17;510076;1099;114145;-60
2021/03/05 19:27:37;;;;;;;11.73;5.90;;;;;;;-2.00;66.74;100376.91;510271;1098;114503;-61
2021/03/05 19:37:41;;;;;;;12.43;7.27;;;;;;;-2.00;66.75;100385.50;510224;1099;114853;-64
2021/03/05 19:47:45;;;;;;;18.97;10.60;;;;;;;-2.19;67.09;100394.05;510609;1098;114349;-63
2021/03/05 19:58:02;;;;;;;31.90;13.70;;;;;;;-2.49;67.74;100412.00;510397;1099;114869;-63
2021/03/05 20:08:10;;;;;;;22.57;11.77;;;;;;;-2.54;68.02;100422.27;510441;1099;115829;-64
2021/03/05 20:18:14;;;;;;;20.83;11.93;;;;;;;-2.36;68.36;100419.74;510747;1099;115086;-66
2021/03/05 20:28:37;;;;;;;19.60;12.47;;;;;;;-2.43;68.57;100435.14;510359;1099;115330;-63
2021/03/05 20:38:42;;;;;;;21.82;14.00;;;;;;;-2.72;69.47;100441.06;510367;1099;117716;-64
2021/03/05 20:48:46;;;;;;;19.10;11.70;;;;;;;-2.86;69.82;100440.15;510265;1099;114999;-64
2021/03/05 20:58:53;;;;;;;17.73;9.57;;;;;;;-3.09;70.19;100453.73;501893;1099;10001725;-63
2021/03/05 21:08:57;;;;;;;11.33;6.73;;;;;;;-3.35;70.03;100462.10;510298;1098;114662;-64
2021/03/05 21:19:01;;;;;;;12.60;6.50;;;;;;;-3.59;71.61;100470.50;510432;1098;115074;-63
2021/03/05 21:29:08;;;;;;;11.57;6.07;;;;;;;-3.62;71.78;100475.62;510919;1099;114812;-64
2021/03/05 21:39:14;;;;;;;10.40;6.90;;;;;;;-3.70;72.58;100481.53;510347;1099;114735;-64
2021/03/05 21:49:18;;;;;;;12.95;6.80;;;;;;;-3.95;72.13;100483.88;510740;1099;114608;-63
2021/03/05 21:59:31;;;;;;;13.60;7.47;;;;;;;-4.13;73.91;100481.11;510353;1099;114962;-64
2021/03/05 22:09:35;;;;;;;16.00;9.47;;;;;;;-4.27;73.77;100497.21;510308;1099;115076;-64
2021/03/05 22:19:39;;;;;;;15.75;7.10;;;;;;;-4.42;73.96;100499.61;510596;1098;114592;-63
2021/03/05 22:29:52;;;;;;;18.57;9.60;;;;;;;-4.52;73.86;100516.56;510876;1099;114530;-63
2021/03/05 22:39:56;;;;;;;19.87;10.53;;;;;;;-4.63;74.18;100524.13;510307;1099;114759;-64
2021/03/05 22:50:00;;;;;;;20.00;9.77;;;;;;;-4.69;75.39;100536.84;510311;1099;114986;-60
2021/03/05 23:00:26;;;;;;;14.07;7.67;;;;;;;-4.66;75.53;100539.47;510637;1098;114492;-59
2021/03/05 23:10:31;;;;;;;13.60;7.57;;;;;;;-4.57;75.96;100549.82;510450;1099;115569;-60
2021/03/05 23:20:38;;;;;;;11.53;7.28;;;;;;;-4.53;76.55;100561.86;510571;1099;114748;-60
2021/03/05 23:30:43;;;;;;;11.13;6.33;;;;;;;-4.54;76.46;100577.20;510536;1099;115240;-60
2021/03/05 23:40:48;;;;;;;16.27;8.73;;;;;;;-4.57;75.29;100578.02;510130;1099;114693;-60
2021/03/05 23:50:53;;;;;;;12.70;7.37;;;;;;;-4.61;76.75;100585.67;510385;1099;115305;-62
